Time;durP1;ratioP1;P1;durP2;ratioP2;P2;SDS_P1;SDS_P2;PMS_P1;PMS_P2;Temp;Humidity;BMP_temperature;BMP_pressure;BME280_temperature;BME280_humidity;BME280_pressure;Samples;Min_cycle;Max_cycle;Signal;HPM_P1;HPM_P2
2021/01/15 00:02:11;;;;;;;5.75;3.10;;;;;;;;;;5108191;28;20601;-65
2021/01/15 00:04:36;;;;;;;6.93;3.25;;;;;;;;;;5106008;28;20481;-65
2021/01/15 00:07:03;;;;;;;6.95;3.13;;;;;;;;;;5107069;28;20453;-65
2021/01/15 00:09:28;;;;;;;5.35;2.60;;;;;;;;;;5107135;28;20432;-65
2021/01/15 00:11:54;;;;;;;4.65;2.38;;;;;;;;;;5106908;28;20028;-65
2021/01/15 00:14:19;;;;;;;7.32;3.03;;;;;;;;;;5106539;28;20036;-65
2021/01/15 00:16:44;;;;;;;5.32;2.58;;;;;;;;;;5106896;28;20023;-65
2021/01/15 00:19:11;;;;;;;5.70;2.72;;;;;;;;;;5105712;28;20469;-65
2021/01/15 00:21:47;;;;;;;5.60;2.75;;;;;;;;;;5105970;28;20032;-65
2021/01/15 00:24:14;;;;;;;6.57;3.10;;;;;;;;;;5104410;28;20456;-65
2021/01/15 00:26:40;;;;;;;6.97;2.97;;;;;;;;;;5106661;28;20035;-65
2021/01/15 00:29:05;;;;;;;4.47;2.47;;;;;;;;;;5105474;28;20035;-65
2021/01/15 00:31:31;;;;;;;5.35;2.78;;;;;;;;;;5102637;28;20294;-65
2021/01/15 00:33:57;;;;;;;6.63;3.25;;;;;;;;;;5103653;28;20061;-65
2021/01/15 00:36:22;;;;;;;6.38;2.95;;;;;;;;;;5104197;28;20063;-65
2021/01/15 00:38:48;;;;;;;7.15;3.03;;;;;;;;;;5104166;28;20071;-65
2021/01/15 00:41:13;;;;;;;7.32;3.80;;;;;;;;;;5107304;27;20569;-65
2021/01/15 00:43:38;;;;;;;6.50;3.30;;;;;;;;;;5106191;28;20457;-65
2021/01/15 00:46:07;;;;;;;5.45;3.08;;;;;;;;;;5107251;28;20419;-65
2021/01/15 00:48:36;;;;;;;7.47;3.45;;;;;;;;;;5103656;28;20477;-65
2021/01/15 00:51:08;;;;;;;5.50;3.35;;;;;;;;;;5106241;28;20056;-65
2021/01/15 00:53:34;;;;;;;6.32;3.28;;;;;;;;;;5106220;28;20156;-65
2021/01/15 00:55:59;;;;;;;6.38;3.38;;;;;;;;;;5106885;28;20522;-65
2021/01/15 00:58:25;;;;;;;4.93;3.20;;;;;;;;;;5104319;28;20043;-65
2021/01/15 01:00:51;;;;;;;5.47;3.60;;;;;;;;;;5092958;28;20117;-65
2021/01/15 01:03:16;;;;;;;6.00;3.42;;;;;;;;;;5105030;28;20119;-65
2021/01/15 01:05:42;;;;;;;6.82;3.88;;;;;;;;;;5104116;28;20055;-65
2021/01/15 01:08:07;;;;;;;6.97;3.42;;;;;;;;;;5107203;28;20024;-65
2021/01/15 01:10:32;;;;;;;6.25;4.20;;;;;;;;;;5092092;28;20040;-65
2021/01/15 01:12:58;;;;;;;6.95;4.00;;;;;;;;;;5107142;28;20035;-65
2021/01/15 01:15:23;;;;;;;10.13;4.53;;;;;;;;;;5105019;28;20039;-65
2021/01/15 01:17:48;;;;;;;7.90;4.60;;;;;;;;;;5106700;28;20080;-65
2021/01/15 01:20:14;;;;;;;8.27;4.57;;;;;;;;;;5111129;28;20035;-65
2021/01/15 01:22:39;;;;;;;6.05;3.22;;;;;;;;;;5109024;28;20027;-65
2021/01/15 01:25:06;;;;;;;7.13;3.90;;;;;;;;;;5108947;28;20457;-65
2021/01/15 01:27:31;;;;;;;6.07;3.80;;;;;;;;;;5110426;28;20379;-65
2021/01/15 01:29:58;;;;;;;6.65;3.95;;;;;;;;;;5109248;28;20092;-65
2021/01/15 01:32:23;;;;;;;7.35;4.53;;;;;;;;;;5110099;28;20035;-65
2021/01/15 01:34:48;;;;;;;7.80;4.10;;;;;;;;;;5110442;28;20121;-65
2021/01/15 01:37:14;;;;;;;6.95;4.25;;;;;;;;;;5110927;28;20601;-65
2021/01/15 01:39:39;;;;;;;6.57;3.92;;;;;;;;;;5109750;28;20119;-65
2021/01/15 01:42:05;;;;;;;7.20;4.22;;;;;;;;;;5109734;28;20054;-65
2021/01/15 01:44:30;;;;;;;6.88;3.90;;;;;;;;;;5109634;28;20024;-65
2021/01/15 01:46:55;;;;;;;7.03;4.15;;;;;;;;;;5110005;28;20106;-65
2021/01/15 01:49:21;;;;;;;9.85;4.25;;;;;;;;;;5108880;28;20050;-65
2021/01/15 01:51:50;;;;;;;10.65;4.07;;;;;;;;;;5106322;28;20046;-65
2021/01/15 01:54:17;;;;;;;7.25;3.58;;;;;;;;;;5107875;28;20093;-65
2021/01/15 01:56:42;;;;;;;8.13;4.10;;;;;;;;;;5109124;28;20047;-65
2021/01/15 01:59:12;;;;;;;7.60;3.30;;;;;;;;;;5109952;28;20396;-65
2021/01/15 02:01:37;;;;;;;6.20;3.50;;;;;;;;;;5106375;28;20035;-65
2021/01/15 02:04:04;;;;;;;8.32;4.28;;;;;;;;;;5109963;28;20036;-65
2021/01/15 02:06:32;;;;;;;5.85;3.38;;;;;;;;;;5108273;28;20461;-65
2021/01/15 02:08:57;;;;;;;6.10;3.50;;;;;;;;;;5109974;28;20031;-65
2021/01/15 02:11:56;;;;;;;6.10;3.45;;;;;;;;;;5107353;28;20406;-65
2021/01/15 02:14:41;;;;;;;6.28;3.22;;;;;;;;;;5096078;28;20050;-65
2021/01/15 02:17:10;;;;;;;5.13;3.28;;;;;;;;;;5108567;27;20112;-65
2021/01/15 02:20:03;;;;;;;5.15;3.60;;;;;;;;;;5104749;28;20032;-65
2021/01/15 02:22:38;;;;;;;5.93;3.28;;;;;;;;;;5104620;28;20027;-65
2021/01/15 02:25:23;;;;;;;5.88;3.30;;;;;;;;;;5109333;28;20043;-65
2021/01/15 02:27:51;;;;;;;7.72;3.80;;;;;;;;;;5106369;28;20046;-65
2021/01/15 02:30:19;;;;;;;7.43;3.83;;;;;;;;;;5094803;28;20413;-65
2021/01/15 02:32:51;;;;;;;5.70;3.38;;;;;;;;;;5108018;28;20053;-65
2021/01/15 02:35:16;;;;;;;;;;;;;;;;;;5109439;28;20157;-66
2021/01/15 02:38:09;;;;;;;6.18;3.70;;;;;;;;;;5108900;28;19921;-66
2021/01/15 02:40:49;;;;;;;7.35;3.60;;;;;;;;;;5107379;28;20106;-66
2021/01/15 02:43:17;;;;;;;6.93;3.67;;;;;;;;;;5102812;28;20038;-66
2021/01/15 02:45:44;;;;;;;7.72;3.88;;;;;;;;;;5107596;28;20457;-66
2021/01/15 02:48:15;;;;;;;6.65;4.07;;;;;;;;;;5104467;28;20191;-66
2021/01/15 02:50:41;;;;;;;;;;;;;;;;;;5108912;28;20027;-66
2021/01/15 02:53:06;;;;;;;5.55;3.38;;;;;;;;;;5108967;28;19914;-66
2021/01/15 02:55:32;;;;;;;7.95;3.95;;;;;;;;;;5106508;28;20491;-66
2021/01/15 02:57:57;;;;;;;6.05;3.00;;;;;;;;;;5105203;27;20424;-66
2021/01/15 03:00:23;;;;;;;5.85;3.30;;;;;;;;;;5105461;28;20035;-66
2021/01/15 03:03:03;;;;;;;5.18;3.50;;;;;;;;;;5108420;28;20508;-66
2021/01/15 03:05:33;;;;;;;8.40;3.78;;;;;;;;;;5106036;28;20369;-66
2021/01/15 03:08:03;;;;;;;6.82;3.38;;;;;;;;;;5108772;28;20061;-66
2021/01/15 03:10:29;;;;;;;9.70;3.25;;;;;;;;;;5108085;28;20026;-65
2021/01/15 03:12:57;;;;;;;5.85;3.60;;;;;;;;;;5107164;28;20027;-64
2021/01/15 03:15:23;;;;;;;8.45;3.65;;;;;;;;;;5107933;28;20619;-65
2021/01/15 03:17:51;;;;;;;6.68;3.33;;;;;;;;;;5108167;28;20105;-65
2021/01/15 03:20:18;;;;;;;8.02;3.63;;;;;;;;;;5108923;28;20159;-65
2021/01/15 03:22:46;;;;;;;7.47;4.13;;;;;;;;;;5105803;28;20053;-65
2021/01/15 03:25:15;;;;;;;6.18;3.22;;;;;;;;;;5107719;28;20134;-65
2021/01/15 03:27:52;;;;;;;5.15;2.83;;;;;;;;;;5107847;28;20031;-65
2021/01/15 03:30:18;;;;;;;5.22;3.08;;;;;;;;;;5093960;28;20032;-65
2021/01/15 03:32:44;;;;;;;5.28;3.28;;;;;;;;;;5123333;27;20039;-65
2021/01/15 03:35:22;;;;;;;7.35;2.70;;;;;;;;;;5108491;28;20067;-65
2021/01/15 03:37:51;;;;;;;5.88;3.38;;;;;;;;;;5106683;27;20029;-64
2021/01/15 03:40:17;;;;;;;8.52;3.65;;;;;;;;;;5107907;28;20032;-65
2021/01/15 03:42:42;;;;;;;7.35;3.10;;;;;;;;;;5104830;28;20099;-65
2021/01/15 03:45:08;;;;;;;6.57;3.30;;;;;;;;;;5083421;28;20023;-65
2021/01/15 03:47:33;;;;;;;7.68;3.63;;;;;;;;;;5104507;28;20445;-64
2021/01/15 03:49:58;;;;;;;4.82;2.85;;;;;;;;;;5107689;28;20031;-64
2021/01/15 03:52:24;;;;;;;7.10;3.75;;;;;;;;;;5107574;28;20020;-64
2021/01/15 03:54:49;;;;;;;7.25;3.47;;;;;;;;;;5107618;27;20497;-64
2021/01/15 03:57:14;;;;;;;5.78;3.20;;;;;;;;;;5105209;28;20386;-64
2021/01/15 03:59:40;;;;;;;7.43;3.17;;;;;;;;;;5107083;28;20043;-64
2021/01/15 04:02:05;;;;;;;6.53;3.58;;;;;;;;;;5107781;28;20362;-64
2021/01/15 04:04:31;;;;;;;6.90;3.20;;;;;;;;;;5105394;28;20060;-64
2021/01/15 04:06:59;;;;;;;5.85;3.35;;;;;;;;;;5106203;28;20039;-64
2021/01/15 04:09:24;;;;;;;8.13;3.40;;;;;;;;;;5107499;28;20031;-64
2021/01/15 04:11:49;;;;;;;6.78;3.67;;;;;;;;;;5107016;28;20031;-64
2021/01/15 04:14:15;;;;;;;7.68;4.38;;;;;;;;;;5107392;28;20069;-64
2021/01/15 04:16:40;;;;;;;4.93;3.03;;;;;;;;;;5106468;28;20028;-64
2021/01/15 04:19:05;;;;;;;7.30;4.22;;;;;;;;;;5102614;28;20465;-64
2021/01/15 04:21:31;;;;;;;10.20;4.82;;;;;;;;;;5106423;28;20468;-63
2021/01/15 04:23:56;;;;;;;5.43;3.83;;;;;;;;;;5107469;28;20119;-64
2021/01/15 04:26:21;;;;;;;8.43;4.28;;;;;;;;;;5106946;28;20705;-64
2021/01/15 04:28:47;;;;;;;11.38;4.72;;;;;;;;;;5107258;28;20023;-64
2021/01/15 04:31:19;;;;;;;7.70;4.75;;;;;;;;;;5105928;28;20039;-64
2021/01/15 04:33:45;;;;;;;6.20;4.28;;;;;;;;;;5107011;28;20098;-64
2021/01/15 04:36:13;;;;;;;7.93;4.40;;;;;;;;;;5106183;28;20123;-64
2021/01/15 04:38:42;;;;;;;8.60;5.55;;;;;;;;;;5106501;28;20039;-63
2021/01/15 04:41:08;;;;;;;9.20;5.15;;;;;;;;;;5104928;28;20036;-63
2021/01/15 04:43:36;;;;;;;7.72;5.00;;;;;;;;;;5106074;28;20036;-64
2021/01/15 04:46:03;;;;;;;8.30;4.90;;;;;;;;;;5107017;28;20035;-63
2021/01/15 04:48:32;;;;;;;8.07;5.10;;;;;;;;;;5105673;28;20028;-63
2021/01/15 04:50:58;;;;;;;10.27;5.82;;;;;;;;;;5106782;28;20039;-63
2021/01/15 04:53:27;;;;;;;9.80;5.60;;;;;;;;;;5106247;28;20039;-63
2021/01/15 04:55:59;;;;;;;9.00;6.35;;;;;;;;;;5074577;28;20023;-63
2021/01/15 04:58:30;;;;;;;8.48;6.10;;;;;;;;;;5096864;28;20499;-63
2021/01/15 05:00:57;;;;;;;9.98;6.15;;;;;;;;;;5105746;28;20036;-63
2021/01/15 05:03:23;;;;;;;11.55;6.53;;;;;;;;;;5105831;28;20070;-63
2021/01/15 05:05:50;;;;;;;12.57;6.88;;;;;;;;;;5105960;28;21059;-63
2021/01/15 05:08:28;;;;;;;10.02;7.03;;;;;;;;;;5107246;28;20027;-63
2021/01/15 05:10:54;;;;;;;10.60;7.35;;;;;;;;;;5106497;28;20091;-63
2021/01/15 05:13:20;;;;;;;12.73;6.75;;;;;;;;;;5093110;28;20044;-63
2021/01/15 05:15:47;;;;;;;10.57;7.80;;;;;;;;;;5104583;28;20523;-63
2021/01/15 05:18:13;;;;;;;9.75;6.53;;;;;;;;;;5106516;28;20092;-62
2021/01/15 05:20:39;;;;;;;8.80;7.18;;;;;;;;;;5084272;28;20118;-62
2021/01/15 05:23:07;;;;;;;9.70;6.85;;;;;;;;;;5105453;28;20593;-62
2021/01/15 05:25:51;;;;;;;9.38;7.13;;;;;;;;;;5105352;28;20043;-62
2021/01/15 05:28:18;;;;;;;12.85;7.78;;;;;;;;;;5104093;28;20024;-62
2021/01/15 05:30:43;;;;;;;12.25;8.15;;;;;;;;;;5101386;28;20071;-62
2021/01/15 05:33:15;;;;;;;15.07;8.50;;;;;;;;;;5106383;28;20050;-63
2021/01/15 05:35:43;;;;;;;12.43;8.63;;;;;;;;;;5105124;28;20034;-62
2021/01/15 05:38:12;;;;;;;10.18;8.02;;;;;;;;;;5104144;28;20031;-63
2021/01/15 05:40:43;;;;;;;10.88;7.95;;;;;;;;;;5101493;28;20035;-63
2021/01/15 05:43:30;;;;;;;12.18;8.98;;;;;;;;;;5105054;28;20439;-63
2021/01/15 05:46:11;;;;;;;14.73;10.32;;;;;;;;;;5105786;28;20035;-63
2021/01/15 05:48:48;;;;;;;12.07;8.45;;;;;;;;;;5105376;28;20152;-63
2021/01/15 05:51:30;;;;;;;12.32;8.82;;;;;;;;;;5105595;28;20099;-63
2021/01/15 05:53:57;;;;;;;13.40;9.30;;;;;;;;;;5104117;28;20400;-63
2021/01/15 05:56:23;;;;;;;12.50;8.57;;;;;;;;;;5103444;28;20046;-63
2021/01/15 05:59:08;;;;;;;12.90;9.25;;;;;;;;;;5103242;28;20049;-63
2021/01/15 06:01:42;;;;;;;10.48;8.15;;;;;;;;;;5103460;28;20035;-63
2021/01/15 06:04:09;;;;;;;13.02;9.48;;;;;;;;;;5107083;28;20035;-63
2021/01/15 06:06:35;;;;;;;12.85;9.18;;;;;;;;;;5109358;28;20100;-62
2021/01/15 06:09:04;;;;;;;14.68;8.82;;;;;;;;;;5101083;28;20117;-63
2021/01/15 06:11:29;;;;;;;16.30;9.73;;;;;;;;;;5107487;28;20023;-63
2021/01/15 06:13:54;;;;;;;12.15;8.88;;;;;;;;;;5109609;28;20077;-63
2021/01/15 06:16:20;;;;;;;12.25;8.13;;;;;;;;;;5109174;28;20047;-62
2021/01/15 06:19:01;;;;;;;13.55;8.10;;;;;;;;;;5106931;28;20038;-62
2021/01/15 06:21:32;;;;;;;16.15;8.63;;;;;;;;;;5107570;28;20361;-62
2021/01/15 06:24:03;;;;;;;13.27;9.52;;;;;;;;;;5109702;28;20072;-62
2021/01/15 06:26:39;;;;;;;12.20;8.05;;;;;;;;;;5109012;28;20032;-62
2021/01/15 06:29:14;;;;;;;12.38;8.98;;;;;;;;;;5108960;28;20031;-62
2021/01/15 06:31:48;;;;;;;14.20;8.90;;;;;;;;;;5108029;28;20024;-62
2021/01/15 06:34:16;;;;;;;14.55;9.63;;;;;;;;;;5110170;28;20035;-62
2021/01/15 06:36:50;;;;;;;14.75;9.18;;;;;;;;;;5105501;28;20065;-62
2021/01/15 06:39:17;;;;;;;11.77;8.80;;;;;;;;;;5109869;28;20043;-62
2021/01/15 06:41:43;;;;;;;16.02;8.75;;;;;;;;;;5108123;27;20372;-63
2021/01/15 06:44:11;;;;;;;14.30;9.77;;;;;;;;;;5107161;28;20039;-62
2021/01/15 06:46:45;;;;;;;12.38;9.05;;;;;;;;;;5107720;28;20542;-64
2021/01/15 06:49:17;;;;;;;12.63;9.35;;;;;;;;;;5109272;28;20115;-62
2021/01/15 06:51:58;;;;;;;14.02;8.65;;;;;;;;;;5108214;28;20368;-63
2021/01/15 06:54:26;;;;;;;10.73;7.07;;;;;;;;;;5108192;28;20046;-62
2021/01/15 06:57:02;;;;;;;12.23;8.13;;;;;;;;;;5108648;27;20338;-63
2021/01/15 06:59:33;;;;;;;14.15;9.68;;;;;;;;;;5104368;28;20103;-63
2021/01/15 07:02:12;;;;;;;12.57;8.50;;;;;;;;;;5107734;28;20035;-62
2021/01/15 07:05:04;;;;;;;13.48;9.50;;;;;;;;;;5106625;28;20382;-63
2021/01/15 07:07:31;;;;;;;12.43;8.00;;;;;;;;;;5104665;28;20040;-64
2021/01/15 07:09:59;;;;;;;14.18;9.32;;;;;;;;;;5102560;28;20608;-63
2021/01/15 07:12:25;;;;;;;12.57;8.35;;;;;;;;;;5100381;28;20049;-64
2021/01/15 07:14:59;;;;;;;21.02;9.75;;;;;;;;;;5097390;28;20038;-64
2021/01/15 07:17:30;;;;;;;12.70;9.10;;;;;;;;;;5098563;28;20448;-63
2021/01/15 07:20:18;;;;;;;13.15;9.15;;;;;;;;;;5101409;28;20039;-63
2021/01/15 07:22:53;;;;;;;16.55;8.85;;;;;;;;;;5093473;28;20422;-64
2021/01/15 07:25:21;;;;;;;14.48;9.13;;;;;;;;;;5099013;28;20039;-63
2021/01/15 07:27:47;;;;;;;14.45;8.82;;;;;;;;;;5100504;28;20028;-63
2021/01/15 07:30:20;;;;;;;12.20;8.88;;;;;;;;;;5094053;28;20059;-64
2021/01/15 07:32:47;;;;;;;16.38;8.48;;;;;;;;;;5102341;28;20032;-63
2021/01/15 07:35:15;;;;;;;14.35;9.77;;;;;;;;;;5099428;28;20027;-63
2021/01/15 07:37:40;;;;;;;12.63;9.27;;;;;;;;;;5095219;28;20054;-63
2021/01/15 07:40:13;;;;;;;15.13;8.65;;;;;;;;;;5103143;28;20071;-64
2021/01/15 07:42:46;;;;;;;13.57;8.77;;;;;;;;;;5096224;28;20043;-63
2021/01/15 07:45:23;;;;;;;13.88;8.82;;;;;;;;;;5094779;28;20031;-63
2021/01/15 07:48:07;;;;;;;12.90;9.52;;;;;;;;;;5103091;28;20028;-63
2021/01/15 07:50:39;;;;;;;13.95;9.68;;;;;;;;;;5096712;28;20065;-64
2021/01/15 07:53:05;;;;;;;17.27;11.48;;;;;;;;;;5093791;28;20050;-64
2021/01/15 07:55:48;;;;;;;21.52;12.95;;;;;;;;;;5099704;28;20035;-63
2021/01/15 07:58:15;;;;;;;21.70;13.60;;;;;;;;;;5094017;28;20067;-63
2021/01/15 08:00:41;;;;;;;19.27;13.50;;;;;;;;;;5096346;28;20036;-63
2021/01/15 08:03:07;;;;;;;19.48;13.57;;;;;;;;;;5102448;28;20042;-63
2021/01/15 08:05:32;;;;;;;21.50;14.70;;;;;;;;;;5096982;28;20051;-63
2021/01/15 08:08:17;;;;;;;18.55;12.68;;;;;;;;;;5097138;28;20038;-64
2021/01/15 08:10:46;;;;;;;21.58;12.82;;;;;;;;;;5102481;28;20024;-64
2021/01/15 08:13:26;;;;;;;21.80;13.95;;;;;;;;;;5094322;28;20058;-62
2021/01/15 08:15:51;;;;;;;18.83;12.32;;;;;;;;;;5099606;28;20027;-63
2021/01/15 08:18:17;;;;;;;19.15;13.38;;;;;;;;;;5095187;28;20031;-63
2021/01/15 08:20:47;;;;;;;20.05;12.80;;;;;;;;;;5096696;28;20409;-63
2021/01/15 08:23:23;;;;;;;17.25;11.80;;;;;;;;;;5098946;28;20047;-63
2021/01/15 08:26:00;;;;;;;16.60;12.00;;;;;;;;;;5104131;28;20460;-63
2021/01/15 08:28:26;;;;;;;13.93;10.77;;;;;;;;;;5096941;28;20036;-62
2021/01/15 08:30:59;;;;;;;18.23;12.00;;;;;;;;;;5096920;28;20112;-63
2021/01/15 08:33:25;;;;;;;16.25;10.73;;;;;;;;;;5099338;28;20027;-63
2021/01/15 08:35:53;;;;;;;16.13;10.50;;;;;;;;;;5099399;28;20403;-63
2021/01/15 08:38:32;;;;;;;14.23;11.25;;;;;;;;;;5097193;28;20620;-63
2021/01/15 08:40:59;;;;;;;12.70;9.57;;;;;;;;;;5099150;28;20035;-63
2021/01/15 08:43:25;;;;;;;12.60;9.73;;;;;;;;;;5094391;28;20036;-63
2021/01/15 08:45:51;;;;;;;14.95;9.50;;;;;;;;;;5099054;28;20076;-63
2021/01/15 08:48:18;;;;;;;14.32;9.68;;;;;;;;;;5098062;28;20031;-63
2021/01/15 08:50:43;;;;;;;14.18;9.70;;;;;;;;;;5093813;28;20118;-63
2021/01/15 08:53:10;;;;;;;15.07;9.75;;;;;;;;;;5094682;28;20122;-64
2021/01/15 08:55:39;;;;;;;13.65;9.15;;;;;;;;;;5095106;28;20024;-63
2021/01/15 08:58:05;;;;;;;14.13;10.18;;;;;;;;;;5095226;28;20119;-65
2021/01/15 09:00:34;;;;;;;16.73;10.95;;;;;;;;;;5096143;28;20050;-64
2021/01/15 09:03:03;;;;;;;15.25;9.63;;;;;;;;;;5099596;28;20035;-62
2021/01/15 09:05:31;;;;;;;14.30;10.52;;;;;;;;;;5096101;28;20115;-63
2021/01/15 09:08:01;;;;;;;17.63;10.40;;;;;;;;;;5101235;28;20120;-64
2021/01/15 09:10:27;;;;;;;16.27;10.13;;;;;;;;;;5097578;28;20059;-64
2021/01/15 09:12:54;;;;;;;17.23;11.27;;;;;;;;;;5094611;28;20035;-65
2021/01/15 09:15:24;;;;;;;16.20;10.98;;;;;;;;;;5101265;28;20027;-65
2021/01/15 09:17:50;;;;;;;20.27;10.73;;;;;;;;;;5099887;28;20043;-64
2021/01/15 09:20:17;;;;;;;15.50;10.52;;;;;;;;;;5096950;28;20048;-64
2021/01/15 09:22:43;;;;;;;14.63;10.90;;;;;;;;;;5102052;28;20039;-65
2021/01/15 09:25:09;;;;;;;13.90;10.05;;;;;;;;;;5098379;28;20129;-64
2021/01/15 09:27:35;;;;;;;14.00;10.73;;;;;;;;;;5094553;28;20072;-66
2021/01/15 09:30:00;;;;;;;15.95;10.93;;;;;;;;;;5097842;28;20714;-65
2021/01/15 09:32:25;;;;;;;15.00;10.65;;;;;;;;;;5095113;28;20680;-67
2021/01/15 09:34:51;;;;;;;15.27;11.27;;;;;;;;;;5100822;28;20491;-67
2021/01/15 09:37:16;;;;;;;14.85;10.90;;;;;;;;;;5104330;28;20046;-64
2021/01/15 09:39:41;;;;;;;13.88;10.48;;;;;;;;;;5106543;28;20034;-65
2021/01/15 09:42:10;;;;;;;16.10;10.60;;;;;;;;;;5105296;28;20043;-65
2021/01/15 09:44:35;;;;;;;17.95;10.68;;;;;;;;;;5106442;28;20036;-66
2021/01/15 09:47:03;;;;;;;15.95;10.98;;;;;;;;;;5108368;28;20358;-66
2021/01/15 09:49:31;;;;;;;13.63;10.77;;;;;;;;;;5109004;28;20044;-66
2021/01/15 09:51:56;;;;;;;16.60;11.38;;;;;;;;;;5108556;28;20063;-66
2021/01/15 09:54:22;;;;;;;19.88;11.57;;;;;;;;;;5108869;28;20498;-66
2021/01/15 09:56:47;;;;;;;15.85;11.13;;;;;;;;;;5105333;28;20036;-65
2021/01/15 09:59:16;;;;;;;15.82;11.00;;;;;;;;;;5106982;28;20039;-65
2021/01/15 10:01:42;;;;;;;15.25;10.77;;;;;;;;;;5104707;28;20031;-67
2021/01/15 10:04:08;;;;;;;17.25;11.48;;;;;;;;;;5108482;28;20043;-67
2021/01/15 10:06:38;;;;;;;16.63;11.70;;;;;;;;;;5107606;28;20031;-68
2021/01/15 10:09:04;;;;;;;18.52;11.40;;;;;;;;;;5107007;28;20035;-68
2021/01/15 10:11:34;;;;;;;14.32;10.75;;;;;;;;;;5108838;28;20050;-67
2021/01/15 10:14:02;;;;;;;14.17;11.03;;;;;;;;;;5095565;28;20109;-68
2021/01/15 10:16:27;;;;;;;17.45;12.23;;;;;;;;;;5104870;28;20039;-67
2021/01/15 10:18:54;;;;;;;15.43;11.27;;;;;;;;;;5102358;28;20035;-69
2021/01/15 10:21:24;;;;;;;14.13;10.07;;;;;;;;;;5104530;27;20035;-67
2021/01/15 10:23:54;;;;;;;15.20;10.68;;;;;;;;;;5100184;28;20039;-68
2021/01/15 10:26:24;;;;;;;18.13;11.20;;;;;;;;;;5099763;28;20096;-68
2021/01/15 10:28:56;;;;;;;17.75;11.57;;;;;;;;;;5101835;28;20031;-68
2021/01/15 10:31:29;;;;;;;13.60;10.20;;;;;;;;;;5103303;28;20043;-68
2021/01/15 10:33:58;;;;;;;17.27;11.18;;;;;;;;;;5103565;28;20038;-68
2021/01/15 10:36:25;;;;;;;14.38;10.70;;;;;;;;;;5100849;28;20039;-67
2021/01/15 10:38:51;;;;;;;14.35;10.32;;;;;;;;;;5098881;28;20119;-68
2021/01/15 10:41:30;;;;;;;17.95;10.90;;;;;;;;;;5092518;28;20135;-68
2021/01/15 10:43:57;;;;;;;22.42;11.43;;;;;;;;;;5098023;28;20110;-68
2021/01/15 10:46:40;;;;;;;14.48;10.73;;;;;;;;;;5099364;28;20446;-67
2021/01/15 10:49:13;;;;;;;14.32;10.68;;;;;;;;;;5093597;28;20475;-67
2021/01/15 10:51:42;;;;;;;15.95;9.77;;;;;;;;;;5099983;28;20055;-67
2021/01/15 10:54:08;;;;;;;13.13;9.45;;;;;;;;;;5095664;28;20032;-67
2021/01/15 10:56:41;;;;;;;14.00;9.35;;;;;;;;;;5099660;28;20047;-67
2021/01/15 10:59:07;;;;;;;15.80;9.98;;;;;;;;;;5102706;28;20036;-67
2021/01/15 11:01:40;;;;;;;12.57;9.38;;;;;;;;;;5093016;28;20076;-67
2021/01/15 11:04:06;;;;;;;18.88;13.55;;;;;;;;;;5098189;27;20040;-66
2021/01/15 11:06:33;;;;;;;14.85;10.80;;;;;;;;;;5101904;28;20750;-67
2021/01/15 11:08:58;;;;;;;17.08;9.95;;;;;;;;;;5095678;28;20114;-68
2021/01/15 11:11:24;;;;;;;14.35;10.05;;;;;;;;;;5099266;28;20036;-65
2021/01/15 11:13:49;;;;;;;13.30;10.30;;;;;;;;;;5104906;28;20612;-67
2021/01/15 11:16:15;;;;;;;12.40;10.00;;;;;;;;;;5096327;28;20487;-68
2021/01/15 11:18:41;;;;;;;15.15;10.43;;;;;;;;;;5095935;28;20049;-67
2021/01/15 11:21:07;;;;;;;13.30;10.57;;;;;;;;;;5101188;28;20082;-66
2021/01/15 11:23:32;;;;;;;16.55;9.77;;;;;;;;;;5096795;28;20063;-66
2021/01/15 11:25:58;;;;;;;13.40;10.70;;;;;;;;;;5094809;28;20054;-66
2021/01/15 11:28:23;;;;;;;15.38;11.25;;;;;;;;;;5099994;28;20089;-67
2021/01/15 11:30:49;;;;;;;14.45;9.82;;;;;;;;;;5096590;28;20036;-67
2021/01/15 11:33:14;;;;;;;16.08;11.45;;;;;;;;;;5101133;28;20027;-67
2021/01/15 11:35:39;;;;;;;16.52;11.63;;;;;;;;;;5098776;27;20042;-67
2021/01/15 11:38:05;;;;;;;17.17;11.63;;;;;;;;;;5096289;28;20034;-68
2021/01/15 11:40:30;;;;;;;12.95;11.02;;;;;;;;;;5102732;28;20039;-67
2021/01/15 11:42:59;;;;;;;16.25;10.98;;;;;;;;;;5099526;28;20047;-68
2021/01/15 11:45:25;;;;;;;16.73;12.60;;;;;;;;;;5102924;28;20028;-67
2021/01/15 11:47:54;;;;;;;17.63;11.75;;;;;;;;;;5105272;28;20085;-68
2021/01/15 11:50:21;;;;;;;16.63;12.65;;;;;;;;;;5098801;28;20468;-67
2021/01/15 11:52:47;;;;;;;19.05;12.70;;;;;;;;;;5100363;28;20035;-67
2021/01/15 11:55:14;;;;;;;20.00;13.48;;;;;;;;;;5098239;28;20519;-68
2021/01/15 11:57:40;;;;;;;17.48;12.65;;;;;;;;;;5104587;28;20051;-67
2021/01/15 12:00:07;;;;;;;16.40;12.15;;;;;;;;;;5105051;28;20032;-68
2021/01/15 12:02:32;;;;;;;17.58;13.25;;;;;;;;;;5104724;28;20043;-67
2021/01/15 12:04:58;;;;;;;15.85;12.35;;;;;;;;;;5095575;28;20042;-69
2021/01/15 12:07:23;;;;;;;18.23;13.13;;;;;;;;;;5090253;28;20758;-68
2021/01/15 12:09:49;;;;;;;14.13;11.98;;;;;;;;;;5096389;28;20035;-68
2021/01/15 12:12:14;;;;;;;16.45;12.73;;;;;;;;;;5103937;28;20065;-71
2021/01/15 12:14:40;;;;;;;20.27;12.48;;;;;;;;;;5103882;28;20092;-69
2021/01/15 12:17:05;;;;;;;16.88;12.57;;;;;;;;;;5101033;28;20074;-70
2021/01/15 12:19:30;;;;;;;18.33;13.48;;;;;;;;;;5102250;28;20059;-70
2021/01/15 12:21:56;;;;;;;17.45;12.75;;;;;;;;;;5102354;28;20036;-70
2021/01/15 12:24:21;;;;;;;20.05;14.18;;;;;;;;;;5105036;28;20035;-67
2021/01/15 12:26:46;;;;;;;20.67;13.43;;;;;;;;;;5103149;28;20027;-67
2021/01/15 12:29:12;;;;;;;17.05;13.10;;;;;;;;;;5097611;28;20129;-67
2021/01/15 12:31:38;;;;;;;18.30;12.73;;;;;;;;;;5103507;28;20035;-66
2021/01/15 12:34:04;;;;;;;18.75;12.50;;;;;;;;;;5102043;28;20563;-69
2021/01/15 12:36:29;;;;;;;19.30;13.73;;;;;;;;;;5098814;28;20027;-69
2021/01/15 12:38:55;;;;;;;18.63;13.10;;;;;;;;;;5102393;28;20031;-69
2021/01/15 12:41:20;;;;;;;17.00;13.13;;;;;;;;;;5102361;28;20031;-69
2021/01/15 12:43:46;;;;;;;17.58;12.35;;;;;;;;;;5096461;28;20084;-68
2021/01/15 12:46:12;;;;;;;23.17;14.07;;;;;;;;;;5102840;28;20036;-68
2021/01/15 12:48:38;;;;;;;21.65;13.90;;;;;;;;;;5100510;28;20038;-68
2021/01/15 12:51:07;;;;;;;21.60;13.57;;;;;;;;;;5100775;28;20035;-68
2021/01/15 12:53:33;;;;;;;16.48;12.07;;;;;;;;;;5095043;28;20119;-69
2021/01/15 12:55:59;;;;;;;16.75;11.90;;;;;;;;;;5094022;28;20383;-67
2021/01/15 12:58:27;;;;;;;14.93;11.70;;;;;;;;;;5100817;28;20032;-67
2021/01/15 13:00:53;;;;;;;16.33;12.57;;;;;;;;;;5098621;28;20634;-68
2021/01/15 13:03:19;;;;;;;18.77;13.50;;;;;;;;;;5101128;28;20468;-68
2021/01/15 13:05:44;;;;;;;18.75;12.88;;;;;;;;;;5096126;28;20032;-67
2021/01/15 13:08:09;;;;;;;22.73;13.20;;;;;;;;;;5099505;28;20042;-67
2021/01/15 13:10:35;;;;;;;16.08;12.70;;;;;;;;;;5100840;28;20035;-70
2021/01/15 13:13:01;;;;;;;22.77;12.93;;;;;;;;;;5104292;28;20041;-68
2021/01/15 13:15:26;;;;;;;18.60;13.65;;;;;;;;;;5106444;28;20465;-68
2021/01/15 13:17:54;;;;;;;21.55;15.25;;;;;;;;;;5104570;28;20028;-68
2021/01/15 13:20:21;;;;;;;20.42;14.32;;;;;;;;;;5099277;28;20074;-69
2021/01/15 13:22:46;;;;;;;19.02;14.25;;;;;;;;;;5098973;28;20047;-68
2021/01/15 13:25:12;;;;;;;19.10;14.30;;;;;;;;;;5101541;28;20040;-68
2021/01/15 13:27:42;;;;;;;20.70;14.77;;;;;;;;;;5106856;28;20097;-67
2021/01/15 13:30:08;;;;;;;18.15;14.38;;;;;;;;;;5096789;28;20039;-68
2021/01/15 13:32:33;;;;;;;21.17;15.15;;;;;;;;;;5102553;27;20454;-67
2021/01/15 13:34:59;;;;;;;19.90;14.02;;;;;;;;;;5102028;28;20191;-67
2021/01/15 13:37:24;;;;;;;24.15;15.30;;;;;;;;;;5104293;28;20407;-67
2021/01/15 13:39:49;;;;;;;21.63;14.15;;;;;;;;;;5103226;28;20080;-68
2021/01/15 13:42:18;;;;;;;24.00;15.27;;;;;;;;;;5102602;28;20027;-68
2021/01/15 13:44:43;;;;;;;20.35;15.27;;;;;;;;;;5099839;28;20031;-68
2021/01/15 13:47:09;;;;;;;22.45;17.92;;;;;;;;;;5102753;27;20354;-69
2021/01/15 13:49:39;;;;;;;26.50;18.15;;;;;;;;;;5103197;28;20032;-67
2021/01/15 13:52:04;;;;;;;25.85;19.58;;;;;;;;;;5104913;28;20043;-68
2021/01/15 13:54:30;;;;;;;21.40;14.85;;;;;;;;;;5103864;27;20350;-68
2021/01/15 13:56:56;;;;;;;18.85;14.18;;;;;;;;;;5102672;28;20067;-69
2021/01/15 13:59:21;;;;;;;19.05;14.02;;;;;;;;;;5105920;28;20114;-68
2021/01/15 14:01:46;;;;;;;18.58;13.75;;;;;;;;;;5097629;28;20127;-65
2021/01/15 14:04:12;;;;;;;17.35;13.88;;;;;;;;;;5104403;28;20042;-65
2021/01/15 14:06:37;;;;;;;15.57;12.20;;;;;;;;;;5101701;28;20081;-66
2021/01/15 14:09:03;;;;;;;17.15;13.23;;;;;;;;;;5101218;28;20039;-66
2021/01/15 14:11:29;;;;;;;19.98;13.43;;;;;;;;;;5102068;28;20035;-66
2021/01/15 14:13:55;;;;;;;17.58;12.48;;;;;;;;;;5106009;28;20034;-66
2021/01/15 14:16:20;;;;;;;14.48;11.13;;;;;;;;;;5105793;28;20035;-66
2021/01/15 14:18:46;;;;;;;18.52;13.07;;;;;;;;;;5105762;28;20069;-67
2021/01/15 14:21:11;;;;;;;17.73;12.70;;;;;;;;;;5107575;28;20092;-68
2021/01/15 14:23:36;;;;;;;17.23;12.80;;;;;;;;;;5103829;28;20043;-67
2021/01/15 14:26:02;;;;;;;17.38;12.90;;;;;;;;;;5103896;28;20036;-68
2021/01/15 14:28:27;;;;;;;17.83;12.93;;;;;;;;;;5108895;28;20026;-67
2021/01/15 14:30:54;;;;;;;19.35;12.93;;;;;;;;;;5108645;28;20020;-66
2021/01/15 14:33:19;;;;;;;17.13;12.43;;;;;;;;;;5101716;28;20345;-67
2021/01/15 14:35:44;;;;;;;19.42;13.05;;;;;;;;;;5105189;28;20044;-67